Texarkana, Texas
Current Conditions -  °F | °C
As of 1:53 PM on Wednesday 28 Jan 2015 (Local Time) from KTXK Reporting Station
Clear Clear  
Wind Chill: 24°   Ceiling: Unl
Heat Index: 24°   Visibility: 10mi
Dew Point:   Wind: 15mph
Humidity: 32%   Direction: 190°S
Pressure: 30.07"   Gusts: NA
Location:  33.43°N, 94.05°W
Report Text: KTXK 281953Z 19013KT 10SM CLR 24/07 A3007 RMK AO2 SLP180 T02440067
Loading
Personal Weather Stations






























Interactive Weather Map New forecast layout! Learn more

10-Day Weather Forecast

Advertisements
Track Severe Weather on mobile